Milford, MI

12:46 AM EST on December 12, 2017 (GMT -0500)
MMICMC | | Change Station
Active Advisory: Winter Weather Advisory Active Notice: Public Information Statement

Elev 1013 ft 42.60 °N, 83.60 °W | Updated 216 days ago

Snow
Snow
56.0 °F
Feels Like 56.0 °F
N
3.0
Wind Variable Wind from SE

Today
High -- | Low -- °F
--% Chance of Precip.
Yesterday
High -- | Low -- °F
Precip. -- in
Pressure 29.63 in
Visibility 4.0 miles
Clouds Few 900 ft
Mostly Cloudy 2700 ft
Overcast 4000 ft
Dew Point 28 °F
Humidity 33%
Rainfall 0.19 in
Snow Depth Not available.
7:55 AM 5:01 PM
Waning Crescent, 31% visible
SPECI KPTK 120457Z 27006KT 4SM -SN BR FEW009 BKN027 OVC040 M02/M03 A2963 RMK AO2 P0000 T10221028
Pressure 29.63 in
Visibility 4.0 miles
Clouds Few 900 ft
Mostly Cloudy 2700 ft
Overcast 4000 ft
Dew Point 28 °F
Humidity 33%
Rainfall 0.19 in
Snow Depth Not available.
7:55 AM 5:01 PM
Waning Crescent, 31% visible
SPECI KPTK 120457Z 27006KT 4SM -SN BR FEW009 BKN027 OVC040 M02/M03 A2963 RMK AO2 P0000 T10221028

Get Your Daily Forecast Email!

Thanks for signing up!

Be on the lookout for a verification email in your inbox.

You'll start receiving severe weather alerts in your inbox..

×

10-Day Weather Forecast

Almanac

Astronomy

Dec. 12, 2017 Rise Set
Actual Time
Civil Twilight
Nautical Twilight
Astronomical Twilight
Moon
Length of Visible Light
Length of Day
Tomorrow will be .
, % of the Moon is Illuminated

Today's Extremes

State Highs State Lows

Community

WunderPhotos

Category 6

Welcome to Category 6. This is the collective home for Weather Underground's featured writeups by Dr. Jeff Masters (right), Bob Henson (left), Chris Burt, and other regular contributors.

Nearby

Air Quality

  Air Quality AQ Index Pollutant
Not available.

Snow Depth

Station Depth Elevation

Earthquake Activity

City Distance Mag. Time & Date
Minimum magnitude displayed is 2.5.

Coastal Water Temperatures

Place Temperature

Stations

Nearby Weather Stations

Station Location Temp. Windchill Dew Point Humidity Wind Precip. Elev Updated Type
                   

Watches & Warnings

Winter Weather Advisory
Issued: 6:47 PM EST Dec. 11, 2017 – National Weather Service

... Winter Weather Advisory remains in effect until 2 am EST
Tuesday...

* what... a burst of heavy snow during rush hour brought around 1.5
inches of snow to portions of the Detroit Metro area. An
additional 1 to 2 inches of snow is expected in a portion of the
advised area. Occasional bursts of heavy snow may reduce
visibility to 1/4 mile.

* Where... Livingston, Oakland, Macomb, Washtenaw and Wayne
counties between M59 and I-96.

* When... until 2 am EST Tuesday.

* Additional details... be prepared for reduced visibilities at
times.

Precautionary/preparedness actions...

A Winter Weather Advisory for snow means periods of snow will
cause primarily travel difficulties. Be prepared for snow covered
roads and limited visibilities, and use caution while driving.